sensor_id;sensor_type;location;lat;lon;timestamp;temperature;humidity
33067;DHT22;19428;49.024;8.366;2022-11-15T00:00:52;8.30;99.90
33067;DHT22;19428;49.024;8.366;2022-11-15T00:03:22;8.40;99.90
33067;DHT22;19428;49.024;8.366;2022-11-15T00:05:48;8.50;99.90
33067;DHT22;19428;49.024;8.366;2022-11-15T00:08:14;8.50;99.90
33067;DHT22;19428;49.024;8.366;2022-11-15T00:10:40;8.50;99.90
33067;DHT22;19428;49.024;8.366;2022-11-15T00:13:11;8.50;99.90
33067;DHT22;19428;49.024;8.366;2022-11-15T00:15:39;8.60;99.90
33067;DHT22;19428;49.024;8.366;2022-11-15T00:18:06;8.50;99.90
33067;DHT22;19428;49.024;8.366;2022-11-15T00:20:35;8.50;99.90
33067;DHT22;19428;49.024;8.366;2022-11-15T00:23:03;8.60;99.90
33067;DHT22;19428;49.024;8.366;2022-11-15T00:25:29;8.60;99.90
33067;DHT22;19428;49.024;8.366;2022-11-15T00:27:56;8.60;99.90
33067;DHT22;19428;49.024;8.366;2022-11-15T00:30:22;8.70;99.90
33067;DHT22;19428;49.024;8.366;2022-11-15T00:32:48;8.60;99.90
33067;DHT22;19428;49.024;8.366;2022-11-15T00:35:13;8.60;99.90
33067;DHT22;19428;49.024;8.366;2022-11-15T00:37:39;8.50;99.90
33067;DHT22;19428;49.024;8.366;2022-11-15T00:40:05;8.40;99.90
33067;DHT22;19428;49.024;8.366;2022-11-15T00:42:31;8.50;99.90
33067;DHT22;19428;49.024;8.366;2022-11-15T00:44:56;8.40;99.90
33067;DHT22;19428;49.024;8.366;2022-11-15T00:47:22;8.40;99.90
33067;DHT22;19428;49.024;8.366;2022-11-15T00:49:48;8.60;99.90
33067;DHT22;19428;49.024;8.366;2022-11-15T00:52:13;8.60;99.90
33067;DHT22;19428;49.024;8.366;2022-11-15T00:54:39;8.60;99.90
33067;DHT22;19428;49.024;8.366;2022-11-15T00:57:04;8.50;99.90
33067;DHT22;19428;49.024;8.366;2022-11-15T00:59:30;8.50;99.90
33067;DHT22;19428;49.024;8.366;2022-11-15T01:01:55;8.40;99.90
33067;DHT22;19428;49.024;8.366;2022-11-15T01:04:21;8.50;99.90
33067;DHT22;19428;49.024;8.366;2022-11-15T01:06:47;8.50;99.90
33067;DHT22;19428;49.024;8.366;2022-11-15T01:09:13;8.50;99.90
33067;DHT22;19428;49.024;8.366;2022-11-15T01:11:39;8.60;99.90
33067;DHT22;19428;49.024;8.366;2022-11-15T01:14:05;8.50;99.90
33067;DHT22;19428;49.024;8.366;2022-11-15T01:16:31;8.50;99.90
33067;DHT22;19428;49.024;8.366;2022-11-15T01:18:58;8.60;99.90
33067;DHT22;19428;49.024;8.366;2022-11-15T01:21:24;8.60;99.90
33067;DHT22;19428;49.024;8.366;2022-11-15T01:23:56;8.50;99.90
33067;DHT22;19428;49.024;8.366;2022-11-15T01:26:23;8.50;99.90
33067;DHT22;19428;49.024;8.366;2022-11-15T01:28:48;8.60;99.90
33067;DHT22;19428;49.024;8.366;2022-11-15T01:31:17;8.60;99.90
33067;DHT22;19428;49.024;8.366;2022-11-15T01:33:43;8.70;99.90
33067;DHT22;19428;49.024;8.366;2022-11-15T01:36:15;8.70;99.90
33067;DHT22;19428;49.024;8.366;2022-11-15T01:38:41;8.80;99.90
33067;DHT22;19428;49.024;8.366;2022-11-15T01:41:18;8.80;99.90
33067;DHT22;19428;49.024;8.366;2022-11-15T01:43:45;8.90;99.90
33067;DHT22;19428;49.024;8.366;2022-11-15T01:48:57;8.90;99.90
33067;DHT22;19428;49.024;8.366;2022-11-15T01:51:25;8.90;99.90
33067;DHT22;19428;49.024;8.366;2022-11-15T01:53:55;9.00;99.90
33067;DHT22;19428;49.024;8.366;2022-11-15T01:56:25;9.00;99.90
33067;DHT22;19428;49.024;8.366;2022-11-15T01:58:53;9.00;99.90
33067;DHT22;19428;49.024;8.366;2022-11-15T02:01:21;9.00;99.90
33067;DHT22;19428;49.024;8.366;2022-11-15T02:03:59;9.00;99.90
33067;DHT22;19428;49.024;8.366;2022-11-15T02:06:26;9.00;99.90
33067;DHT22;19428;49.024;8.366;2022-11-15T02:08:52;9.00;99.90
33067;DHT22;19428;49.024;8.366;2022-11-15T02:11:18;8.90;99.90
33067;DHT22;19428;49.024;8.366;2022-11-15T02:13:45;9.00;99.90
33067;DHT22;19428;49.024;8.366;2022-11-15T02:21:55;9.10;99.90
33067;DHT22;19428;49.024;8.366;2022-11-15T02:30:11;8.70;99.90
33067;DHT22;19428;49.024;8.366;2022-11-15T02:32:45;8.90;99.90
33067;DHT22;19428;49.024;8.366;2022-11-15T02:35:23;8.90;99.90
33067;DHT22;19428;49.024;8.366;2022-11-15T02:40:51;8.60;99.90
33067;DHT22;19428;49.024;8.366;2022-11-15T02:43:24;8.50;99.90
33067;DHT22;19428;49.024;8.366;2022-11-15T02:49:14;8.40;99.90
33067;DHT22;19428;49.024;8.366;2022-11-15T02:51:41;8.60;99.90
33067;DHT22;19428;49.024;8.366;2022-11-15T02:54:12;8.70;99.90
33067;DHT22;19428;49.024;8.366;2022-11-15T02:56:39;8.70;99.90
33067;DHT22;19428;49.024;8.366;2022-11-15T03:05:04;8.60;99.90
33067;DHT22;19428;49.024;8.366;2022-11-15T03:07:42;8.80;99.90
33067;DHT22;19428;49.024;8.366;2022-11-15T03:10:26;8.90;99.90
33067;DHT22;19428;49.024;8.366;2022-11-15T03:13:03;8.90;99.90
33067;DHT22;19428;49.024;8.366;2022-11-15T03:15:37;8.90;99.90
33067;DHT22;19428;49.024;8.366;2022-11-15T03:18:19;9.00;99.90
33067;DHT22;19428;49.024;8.366;2022-11-15T03:20:48;9.00;99.90
33067;DHT22;19428;49.024;8.366;2022-11-15T03:23:14;9.00;99.90
33067;DHT22;19428;49.024;8.366;2022-11-15T03:25:46;9.00;99.90
33067;DHT22;19428;49.024;8.366;2022-11-15T03:28:20;9.10;99.90
33067;DHT22;19428;49.024;8.366;2022-11-15T03:30:49;9.00;99.90
33067;DHT22;19428;49.024;8.366;2022-11-15T03:33:15;9.00;99.90
33067;DHT22;19428;49.024;8.366;2022-11-15T03:35:44;9.10;99.90
33067;DHT22;19428;49.024;8.366;2022-11-15T03:41:04;9.00;99.90
33067;DHT22;19428;49.024;8.366;2022-11-15T03:43:39;9.00;99.90
33067;DHT22;19428;49.024;8.366;2022-11-15T03:46:12;8.90;99.90
33067;DHT22;19428;49.024;8.366;2022-11-15T03:49:07;8.90;99.90
33067;DHT22;19428;49.024;8.366;2022-11-15T03:51:31;8.90;99.90
33067;DHT22;19428;49.024;8.366;2022-11-15T03:53:57;8.90;99.90
33067;DHT22;19428;49.024;8.366;2022-11-15T03:56:22;9.00;99.90
33067;DHT22;19428;49.024;8.366;2022-11-15T03:58:48;9.10;99.90
33067;DHT22;19428;49.024;8.366;2022-11-15T04:01:14;9.10;99.90
33067;DHT22;19428;49.024;8.366;2022-11-15T04:03:39;9.10;99.90
33067;DHT22;19428;49.024;8.366;2022-11-15T04:06:05;9.10;99.90
33067;DHT22;19428;49.024;8.366;2022-11-15T04:08:31;9.20;99.90
33067;DHT22;19428;49.024;8.366;2022-11-15T04:10:56;9.20;99.90
33067;DHT22;19428;49.024;8.366;2022-11-15T04:13:22;9.30;99.90
33067;DHT22;19428;49.024;8.366;2022-11-15T04:15:47;9.30;99.90
33067;DHT22;19428;49.024;8.366;2022-11-15T04:18:13;9.30;99.90
33067;DHT22;19428;49.024;8.366;2022-11-15T04:20:39;9.30;99.90
33067;DHT22;19428;49.024;8.366;2022-11-15T04:23:23;9.30;99.90
33067;DHT22;19428;49.024;8.366;2022-11-15T04:26:19;9.20;99.90
33067;DHT22;19428;49.024;8.366;2022-11-15T04:28:45;9.20;99.90
33067;DHT22;19428;49.024;8.366;2022-11-15T04:31:30;9.20;99.90
33067;DHT22;19428;49.024;8.366;2022-11-15T04:33:55;9.20;99.90
33067;DHT22;19428;49.024;8.366;2022-11-15T04:36:21;9.20;99.90
33067;DHT22;19428;49.024;8.366;2022-11-15T04:39:06;9.20;99.90
33067;DHT22;19428;49.024;8.366;2022-11-15T04:41:32;9.30;99.90
33067;DHT22;19428;49.024;8.366;2022-11-15T04:43:57;9.30;99.90
33067;DHT22;19428;49.024;8.366;2022-11-15T04:46:24;9.30;99.90
33067;DHT22;19428;49.024;8.366;2022-11-15T04:48:50;9.30;99.90
33067;DHT22;19428;49.024;8.366;2022-11-15T04:51:16;9.40;99.90
33067;DHT22;19428;49.024;8.366;2022-11-15T04:53:42;9.40;99.90
33067;DHT22;19428;49.024;8.366;2022-11-15T04:56:08;9.30;99.90
33067;DHT22;19428;49.024;8.366;2022-11-15T04:58:33;9.30;99.90
33067;DHT22;19428;49.024;8.366;2022-11-15T05:01:11;9.40;99.90
33067;DHT22;19428;49.024;8.366;2022-11-15T05:03:39;9.30;99.90
33067;DHT22;19428;49.024;8.366;2022-11-15T05:06:23;9.40;99.90
33067;DHT22;19428;49.024;8.366;2022-11-15T05:08:48;9.40;99.90
33067;DHT22;19428;49.024;8.366;2022-11-15T05:11:14;9.40;99.90
33067;DHT22;19428;49.024;8.366;2022-11-15T05:13:40;9.40;99.90
33067;DHT22;19428;49.024;8.366;2022-11-15T05:16:05;9.40;99.90
33067;DHT22;19428;49.024;8.366;2022-11-15T05:18:31;9.40;99.90
33067;DHT22;19428;49.024;8.366;2022-11-15T05:21:03;9.40;99.90
33067;DHT22;19428;49.024;8.366;2022-11-15T05:23:29;9.40;99.90
33067;DHT22;19428;49.024;8.366;2022-11-15T05:26:02;9.40;99.90
33067;DHT22;19428;49.024;8.366;2022-11-15T05:28:28;9.40;99.90
33067;DHT22;19428;49.024;8.366;2022-11-15T05:33:28;9.40;99.90
33067;DHT22;19428;49.024;8.366;2022-11-15T05:36:04;9.40;99.90
33067;DHT22;19428;49.024;8.366;2022-11-15T05:38:30;9.40;99.90
33067;DHT22;19428;49.024;8.366;2022-11-15T05:40:57;9.50;99.90
33067;DHT22;19428;49.024;8.366;2022-11-15T05:43:23;9.40;99.90
33067;DHT22;19428;49.024;8.366;2022-11-15T05:45:49;9.30;99.90
33067;DHT22;19428;49.024;8.366;2022-11-15T05:48:15;9.40;99.90
33067;DHT22;19428;49.024;8.366;2022-11-15T05:50:46;9.30;99.90
33067;DHT22;19428;49.024;8.366;2022-11-15T05:53:14;9.20;99.90
33067;DHT22;19428;49.024;8.366;2022-11-15T05:55:41;9.20;99.90
33067;DHT22;19428;49.024;8.366;2022-11-15T05:58:07;9.30;99.90
33067;DHT22;19428;49.024;8.366;2022-11-15T06:00:33;9.30;99.90
33067;DHT22;19428;49.024;8.366;2022-11-15T06:02:59;9.30;99.90
33067;DHT22;19428;49.024;8.366;2022-11-15T06:05:24;9.30;99.90
33067;DHT22;19428;49.024;8.366;2022-11-15T06:07:50;9.30;99.90
33067;DHT22;19428;49.024;8.366;2022-11-15T06:10:16;9.10;99.90
33067;DHT22;19428;49.024;8.366;2022-11-15T06:12:41;8.90;99.90
33067;DHT22;19428;49.024;8.366;2022-11-15T06:15:07;9.00;99.90
33067;DHT22;19428;49.024;8.366;2022-11-15T06:17:33;8.90;99.90
33067;DHT22;19428;49.024;8.366;2022-11-15T06:19:59;8.80;99.90
33067;DHT22;19428;49.024;8.366;2022-11-15T06:22:24;9.00;99.90
33067;DHT22;19428;49.024;8.366;2022-11-15T06:24:50;9.10;99.90
33067;DHT22;19428;49.024;8.366;2022-11-15T06:27:15;9.20;99.90
33067;DHT22;19428;49.024;8.366;2022-11-15T06:29:41;9.10;99.90
33067;DHT22;19428;49.024;8.366;2022-11-15T06:32:07;9.20;99.90
33067;DHT22;19428;49.024;8.366;2022-11-15T06:34:32;9.10;99.90
33067;DHT22;19428;49.024;8.366;2022-11-15T06:36:58;9.20;99.90
33067;DHT22;19428;49.024;8.366;2022-11-15T06:39:24;9.20;99.90
33067;DHT22;19428;49.024;8.366;2022-11-15T06:41:49;9.30;99.90
33067;DHT22;19428;49.024;8.366;2022-11-15T06:44:15;9.30;99.90
33067;DHT22;19428;49.024;8.366;2022-11-15T06:46:41;9.40;99.90
33067;DHT22;19428;49.024;8.366;2022-11-15T06:49:07;9.40;99.90
33067;DHT22;19428;49.024;8.366;2022-11-15T06:51:33;9.50;99.90
33067;DHT22;19428;49.024;8.366;2022-11-15T06:53:58;9.50;99.90
33067;DHT22;19428;49.024;8.366;2022-11-15T06:56:24;9.50;99.90
33067;DHT22;19428;49.024;8.366;2022-11-15T06:58:49;9.60;99.90
33067;DHT22;19428;49.024;8.366;2022-11-15T07:01:15;9.50;99.90
33067;DHT22;19428;49.024;8.366;2022-11-15T07:03:41;9.40;99.90
33067;DHT22;19428;49.024;8.366;2022-11-15T07:06:09;9.40;99.90
33067;DHT22;19428;49.024;8.366;2022-11-15T07:08:35;9.50;99.90
33067;DHT22;19428;49.024;8.366;2022-11-15T07:11:03;9.50;99.90
33067;DHT22;19428;49.024;8.366;2022-11-15T07:13:31;9.60;99.90
33067;DHT22;19428;49.024;8.366;2022-11-15T07:16:07;9.60;99.90
33067;DHT22;19428;49.024;8.366;2022-11-15T07:18:35;9.60;99.90
33067;DHT22;19428;49.024;8.366;2022-11-15T07:21:05;9.60;99.90
33067;DHT22;19428;49.024;8.366;2022-11-15T07:23:36;9.60;99.90
33067;DHT22;19428;49.024;8.366;2022-11-15T07:26:13;9.70;99.90
33067;DHT22;19428;49.024;8.366;2022-11-15T07:28:39;9.80;99.90
33067;DHT22;19428;49.024;8.366;2022-11-15T07:31:06;9.80;99.90
33067;DHT22;19428;49.024;8.366;2022-11-15T07:33:32;9.90;99.90
33067;DHT22;19428;49.024;8.366;2022-11-15T07:36:02;9.90;99.90
33067;DHT22;19428;49.024;8.366;2022-11-15T07:38:28;9.90;99.90
33067;DHT22;19428;49.024;8.366;2022-11-15T07:41:02;9.90;99.90
33067;DHT22;19428;49.024;8.366;2022-11-15T07:43:28;10.00;99.90
33067;DHT22;19428;49.024;8.366;2022-11-15T07:45:55;10.00;99.90
33067;DHT22;19428;49.024;8.366;2022-11-15T07:48:21;10.00;99.90
33067;DHT22;19428;49.024;8.366;2022-11-15T07:50:47;10.10;99.90
33067;DHT22;19428;49.024;8.366;2022-11-15T07:53:15;10.00;99.90
33067;DHT22;19428;49.024;8.366;2022-11-15T07:55:41;10.10;99.90
33067;DHT22;19428;49.024;8.366;2022-11-15T07:58:09;10.00;99.90
33067;DHT22;19428;49.024;8.366;2022-11-15T08:00:38;10.10;99.90
33067;DHT22;19428;49.024;8.366;2022-11-15T08:03:11;10.20;99.90
33067;DHT22;19428;49.024;8.366;2022-11-15T08:05:41;10.20;99.90
33067;DHT22;19428;49.024;8.366;2022-11-15T08:08:14;10.20;99.90
33067;DHT22;19428;49.024;8.366;2022-11-15T08:10:48;10.20;99.90
33067;DHT22;19428;49.024;8.366;2022-11-15T08:13:14;10.30;99.90
33067;DHT22;19428;49.024;8.366;2022-11-15T08:15:39;10.30;99.90
33067;DHT22;19428;49.024;8.366;2022-11-15T08:18:14;10.40;99.90
33067;DHT22;19428;49.024;8.366;2022-11-15T08:20:40;10.40;99.90
33067;DHT22;19428;49.024;8.366;2022-11-15T08:23:07;10.40;99.90
33067;DHT22;19428;49.024;8.366;2022-11-15T08:25:37;10.50;99.90
33067;DHT22;19428;49.024;8.366;2022-11-15T08:28:27;10.60;99.90
33067;DHT22;19428;49.024;8.366;2022-11-15T08:30:52;10.70;99.90
33067;DHT22;19428;49.024;8.366;2022-11-15T08:33:23;10.80;99.90
33067;DHT22;19428;49.024;8.366;2022-11-15T08:35:49;10.90;99.90
33067;DHT22;19428;49.024;8.366;2022-11-15T08:38:16;11.10;99.90
33067;DHT22;19428;49.024;8.366;2022-11-15T08:40:42;11.30;99.90
33067;DHT22;19428;49.024;8.366;2022-11-15T08:43:08;11.20;99.90
33067;DHT22;19428;49.024;8.366;2022-11-15T08:45:35;11.30;99.90
33067;DHT22;19428;49.024;8.366;2022-11-15T08:48:01;11.40;99.90
33067;DHT22;19428;49.024;8.366;2022-11-15T08:50:41;11.40;99.90
33067;DHT22;19428;49.024;8.366;2022-11-15T08:53:34;11.40;99.90
33067;DHT22;19428;49.024;8.366;2022-11-15T08:56:20;11.40;99.90
33067;DHT22;19428;49.024;8.366;2022-11-15T08:58:48;11.40;99.90
33067;DHT22;19428;49.024;8.366;2022-11-15T09:01:17;11.40;99.90
33067;DHT22;19428;49.024;8.366;2022-11-15T09:03:49;11.50;99.90
33067;DHT22;19428;49.024;8.366;2022-11-15T09:06:15;11.50;99.90
33067;DHT22;19428;49.024;8.366;2022-11-15T09:08:43;11.70;99.90
33067;DHT22;19428;49.024;8.366;2022-11-15T09:11:10;11.70;99.90
33067;DHT22;19428;49.024;8.366;2022-11-15T09:13:36;11.70;99.90
33067;DHT22;19428;49.024;8.366;2022-11-15T09:16:05;11.70;99.90
33067;DHT22;19428;49.024;8.366;2022-11-15T09:18:32;11.70;99.90
33067;DHT22;19428;49.024;8.366;2022-11-15T09:20:59;11.80;99.90
33067;DHT22;19428;49.024;8.366;2022-11-15T09:23:25;11.90;99.90
33067;DHT22;19428;49.024;8.366;2022-11-15T09:25:51;11.90;99.90
33067;DHT22;19428;49.024;8.366;2022-11-15T09:28:17;11.90;99.90
33067;DHT22;19428;49.024;8.366;2022-11-15T09:30:43;11.90;99.90
33067;DHT22;19428;49.024;8.366;2022-11-15T09:33:15;12.00;99.90
33067;DHT22;19428;49.024;8.366;2022-11-15T09:35:43;12.10;99.90
33067;DHT22;19428;49.024;8.366;2022-11-15T09:38:09;12.20;99.90
33067;DHT22;19428;49.024;8.366;2022-11-15T09:40:37;12.10;99.90
33067;DHT22;19428;49.024;8.366;2022-11-15T09:51:14;12.20;99.90
33067;DHT22;19428;49.024;8.366;2022-11-15T09:56:42;12.10;99.90
33067;DHT22;19428;49.024;8.366;2022-11-15T09:59:31;12.20;99.90
33067;DHT22;19428;49.024;8.366;2022-11-15T10:05:10;12.20;99.90
33067;DHT22;19428;49.024;8.366;2022-11-15T10:07:59;12.30;99.90
33067;DHT22;19428;49.024;8.366;2022-11-15T10:10:27;12.30;99.90
33067;DHT22;19428;49.024;8.366;2022-11-15T10:12:55;12.20;99.90
33067;DHT22;19428;49.024;8.366;2022-11-15T10:15:21;12.20;99.90
33067;DHT22;19428;49.024;8.366;2022-11-15T10:18:15;12.20;99.90
33067;DHT22;19428;49.024;8.366;2022-11-15T10:20:51;12.20;99.90
33067;DHT22;19428;49.024;8.366;2022-11-15T10:23:21;12.30;99.90
33067;DHT22;19428;49.024;8.366;2022-11-15T10:25:48;12.30;99.90
33067;DHT22;19428;49.024;8.366;2022-11-15T10:28:31;12.40;99.90
33067;DHT22;19428;49.024;8.366;2022-11-15T10:30:58;12.40;99.90
33067;DHT22;19428;49.024;8.366;2022-11-15T10:33:38;12.30;99.90
33067;DHT22;19428;49.024;8.366;2022-11-15T10:41:21;12.50;99.90
33067;DHT22;19428;49.024;8.366;2022-11-15T10:46:48;12.30;99.90
33067;DHT22;19428;49.024;8.366;2022-11-15T10:49:25;12.40;99.90
33067;DHT22;19428;49.024;8.366;2022-11-15T10:51:53;12.50;99.90
33067;DHT22;19428;49.024;8.366;2022-11-15T10:54:35;12.60;99.90
33067;DHT22;19428;49.024;8.366;2022-11-15T10:57:10;12.70;99.90
33067;DHT22;19428;49.024;8.366;2022-11-15T10:59:37;12.80;99.90
33067;DHT22;19428;49.024;8.366;2022-11-15T11:02:30;12.70;99.90
33067;DHT22;19428;49.024;8.366;2022-11-15T11:04:57;12.80;99.90
33067;DHT22;19428;49.024;8.366;2022-11-15T11:07:34;12.70;99.90
33067;DHT22;19428;49.024;8.366;2022-11-15T11:10:21;12.80;99.90
33067;DHT22;19428;49.024;8.366;2022-11-15T11:12:46;12.80;99.90
33067;DHT22;19428;49.024;8.366;2022-11-15T11:15:14;12.80;99.90
33067;DHT22;19428;49.024;8.366;2022-11-15T11:20:31;13.10;99.90
33067;DHT22;19428;49.024;8.366;2022-11-15T11:45:24;13.60;99.90
33067;DHT22;19428;49.024;8.366;2022-11-15T11:48:13;13.60;99.90
33067;DHT22;19428;49.024;8.366;2022-11-15T11:50:40;13.60;99.90
33067;DHT22;19428;49.024;8.366;2022-11-15T11:56:02;13.60;99.90
33067;DHT22;19428;49.024;8.366;2022-11-15T11:58:46;13.60;99.90
33067;DHT22;19428;49.024;8.366;2022-11-15T12:01:27;13.80;99.90
33067;DHT22;19428;49.024;8.366;2022-11-15T12:06:36;13.70;99.90
33067;DHT22;19428;49.024;8.366;2022-11-15T12:14:42;13.70;99.90
33067;DHT22;19428;49.024;8.366;2022-11-15T12:17:11;13.70;99.90
33067;DHT22;19428;49.024;8.366;2022-11-15T12:19:38;13.90;99.90
33067;DHT22;19428;49.024;8.366;2022-11-15T12:22:32;13.80;99.90
33067;DHT22;19428;49.024;8.366;2022-11-15T12:25:08;13.70;99.90
33067;DHT22;19428;49.024;8.366;2022-11-15T12:27:57;13.70;99.90
33067;DHT22;19428;49.024;8.366;2022-11-15T12:30:38;13.70;99.90
33067;DHT22;19428;49.024;8.366;2022-11-15T12:33:32;13.90;99.90
33067;DHT22;19428;49.024;8.366;2022-11-15T12:36:08;13.90;99.90
33067;DHT22;19428;49.024;8.366;2022-11-15T12:38:54;13.80;99.90
33067;DHT22;19428;49.024;8.366;2022-11-15T12:41:21;13.90;99.90
33067;DHT22;19428;49.024;8.366;2022-11-15T12:43:47;14.20;99.90
33067;DHT22;19428;49.024;8.366;2022-11-15T12:46:21;14.10;99.90
33067;DHT22;19428;49.024;8.366;2022-11-15T12:48:50;14.10;99.90
33067;DHT22;19428;49.024;8.366;2022-11-15T12:51:18;14.40;99.90
33067;DHT22;19428;49.024;8.366;2022-11-15T12:53:44;14.10;99.90
33067;DHT22;19428;49.024;8.366;2022-11-15T12:58:59;13.90;99.90
33067;DHT22;19428;49.024;8.366;2022-11-15T13:07:03;13.80;99.90
33067;DHT22;19428;49.024;8.366;2022-11-15T13:11:58;13.80;99.90
33067;DHT22;19428;49.024;8.366;2022-11-15T13:14:47;13.90;99.90
33067;DHT22;19428;49.024;8.366;2022-11-15T13:28:24;13.90;99.90
33067;DHT22;19428;49.024;8.366;2022-11-15T13:31:01;13.90;99.90
33067;DHT22;19428;49.024;8.366;2022-11-15T13:33:35;13.90;99.90
33067;DHT22;19428;49.024;8.366;2022-11-15T13:36:18;13.90;99.90
33067;DHT22;19428;49.024;8.366;2022-11-15T13:39:00;14.00;99.90
33067;DHT22;19428;49.024;8.366;2022-11-15T13:41:29;14.00;99.90
33067;DHT22;19428;49.024;8.366;2022-11-15T13:43:56;14.00;99.90
33067;DHT22;19428;49.024;8.366;2022-11-15T13:46:32;14.00;99.90
33067;DHT22;19428;49.024;8.366;2022-11-15T13:49:08;14.00;99.90
33067;DHT22;19428;49.024;8.366;2022-11-15T13:51:51;14.00;99.90
33067;DHT22;19428;49.024;8.366;2022-11-15T13:54:22;14.00;99.90
33067;DHT22;19428;49.024;8.366;2022-11-15T13:56:53;13.90;99.90
33067;DHT22;19428;49.024;8.366;2022-11-15T13:59:31;13.90;99.90
33067;DHT22;19428;49.024;8.366;2022-11-15T14:02:03;13.90;99.90
33067;DHT22;19428;49.024;8.366;2022-11-15T14:04:45;13.90;99.90
33067;DHT22;19428;49.024;8.366;2022-11-15T14:07:18;13.90;99.90
33067;DHT22;19428;49.024;8.366;2022-11-15T14:09:44;13.80;99.90
33067;DHT22;19428;49.024;8.366;2022-11-15T14:12:33;13.80;99.90
33067;DHT22;19428;49.024;8.366;2022-11-15T14:15:17;13.80;99.90
33067;DHT22;19428;49.024;8.366;2022-11-15T14:17:44;13.80;99.90
33067;DHT22;19428;49.024;8.366;2022-11-15T14:22:58;13.90;99.90
33067;DHT22;19428;49.024;8.366;2022-11-15T14:25:29;13.90;99.90
33067;DHT22;19428;49.024;8.366;2022-11-15T14:28:14;13.80;99.90
33067;DHT22;19428;49.024;8.366;2022-11-15T14:30:42;13.80;99.90
33067;DHT22;19428;49.024;8.366;2022-11-15T14:33:30;13.80;99.90
33067;DHT22;19428;49.024;8.366;2022-11-15T14:36:02;13.90;99.90
33067;DHT22;19428;49.024;8.366;2022-11-15T14:38:28;13.90;99.90
33067;DHT22;19428;49.024;8.366;2022-11-15T14:40:54;13.80;99.90
33067;DHT22;19428;49.024;8.366;2022-11-15T14:43:21;13.80;99.90
33067;DHT22;19428;49.024;8.366;2022-11-15T14:45:47;13.80;99.90
33067;DHT22;19428;49.024;8.366;2022-11-15T14:48:12;13.70;99.90
33067;DHT22;19428;49.024;8.366;2022-11-15T14:50:38;13.70;99.90
33067;DHT22;19428;49.024;8.366;2022-11-15T14:53:05;13.60;99.90
33067;DHT22;19428;49.024;8.366;2022-11-15T14:55:35;13.60;99.90
33067;DHT22;19428;49.024;8.366;2022-11-15T14:58:06;13.50;99.90
33067;DHT22;19428;49.024;8.366;2022-11-15T15:00:36;13.50;99.90
33067;DHT22;19428;49.024;8.366;2022-11-15T15:03:03;13.40;99.90
33067;DHT22;19428;49.024;8.366;2022-11-15T15:05:35;13.40;99.90
33067;DHT22;19428;49.024;8.366;2022-11-15T15:08:01;13.50;99.90
33067;DHT22;19428;49.024;8.366;2022-11-15T15:10:41;13.40;99.90
33067;DHT22;19428;49.024;8.366;2022-11-15T15:13:16;13.40;99.90
33067;DHT22;19428;49.024;8.366;2022-11-15T15:15:43;13.30;99.90
33067;DHT22;19428;49.024;8.366;2022-11-15T15:18:08;13.30;99.90
33067;DHT22;19428;49.024;8.366;2022-11-15T15:20:38;13.20;99.90
33067;DHT22;19428;49.024;8.366;2022-11-15T15:23:05;13.10;99.90
33067;DHT22;19428;49.024;8.366;2022-11-15T15:25:32;13.10;99.90
33067;DHT22;19428;49.024;8.366;2022-11-15T15:27:59;13.20;99.90
33067;DHT22;19428;49.024;8.366;2022-11-15T15:30:26;13.10;99.90
33067;DHT22;19428;49.024;8.366;2022-11-15T15:32:52;13.30;99.90
33067;DHT22;19428;49.024;8.366;2022-11-15T15:35:18;13.10;99.90
33067;DHT22;19428;49.024;8.366;2022-11-15T15:37:45;13.10;99.90
33067;DHT22;19428;49.024;8.366;2022-11-15T15:40:18;13.10;99.90
33067;DHT22;19428;49.024;8.366;2022-11-15T15:42:43;12.90;99.90
33067;DHT22;19428;49.024;8.366;2022-11-15T15:45:10;12.80;99.90
33067;DHT22;19428;49.024;8.366;2022-11-15T15:47:36;12.80;99.90
33067;DHT22;19428;49.024;8.366;2022-11-15T15:50:02;12.70;99.90
33067;DHT22;19428;49.024;8.366;2022-11-15T15:52:28;12.60;99.90
33067;DHT22;19428;49.024;8.366;2022-11-15T15:54:53;12.50;99.90
33067;DHT22;19428;49.024;8.366;2022-11-15T15:57:19;12.40;99.90
33067;DHT22;19428;49.024;8.366;2022-11-15T15:59:44;12.40;99.90
33067;DHT22;19428;49.024;8.366;2022-11-15T16:02:14;12.40;99.90
33067;DHT22;19428;49.024;8.366;2022-11-15T16:04:40;12.40;99.90
33067;DHT22;19428;49.024;8.366;2022-11-15T16:07:07;12.40;99.90
33067;DHT22;19428;49.024;8.366;2022-11-15T16:09:37;12.30;99.90
33067;DHT22;19428;49.024;8.366;2022-11-15T16:12:21;12.30;99.90
33067;DHT22;19428;49.024;8.366;2022-11-15T16:14:48;12.30;99.90
33067;DHT22;19428;49.024;8.366;2022-11-15T16:17:30;12.20;99.90
33067;DHT22;19428;49.024;8.366;2022-11-15T16:19:56;12.20;99.90
33067;DHT22;19428;49.024;8.366;2022-11-15T16:22:22;12.30;99.90
33067;DHT22;19428;49.024;8.366;2022-11-15T16:24:47;12.30;99.90
33067;DHT22;19428;49.024;8.366;2022-11-15T16:27:19;12.30;99.90
33067;DHT22;19428;49.024;8.366;2022-11-15T16:29:45;12.20;99.90
33067;DHT22;19428;49.024;8.366;2022-11-15T16:32:13;12.00;99.90
33067;DHT22;19428;49.024;8.366;2022-11-15T16:34:38;12.10;99.90
33067;DHT22;19428;49.024;8.366;2022-11-15T16:37:05;12.20;99.90
33067;DHT22;19428;49.024;8.366;2022-11-15T16:39:31;12.20;99.90
33067;DHT22;19428;49.024;8.366;2022-11-15T16:41:57;12.10;99.90
33067;DHT22;19428;49.024;8.366;2022-11-15T16:44:24;12.20;99.90
33067;DHT22;19428;49.024;8.366;2022-11-15T16:46:50;12.20;99.90
33067;DHT22;19428;49.024;8.366;2022-11-15T16:49:19;12.10;99.90
33067;DHT22;19428;49.024;8.366;2022-11-15T16:51:47;12.10;99.90
33067;DHT22;19428;49.024;8.366;2022-11-15T16:54:13;12.10;99.90
33067;DHT22;19428;49.024;8.366;2022-11-15T16:56:39;12.00;99.90
33067;DHT22;19428;49.024;8.366;2022-11-15T16:59:08;12.10;99.90
33067;DHT22;19428;49.024;8.366;2022-11-15T17:01:37;12.10;99.90
33067;DHT22;19428;49.024;8.366;2022-11-15T17:04:11;12.00;99.90
33067;DHT22;19428;49.024;8.366;2022-11-15T17:06:45;11.80;99.90
33067;DHT22;19428;49.024;8.366;2022-11-15T17:09:17;11.80;99.90
33067;DHT22;19428;49.024;8.366;2022-11-15T17:11:43;11.80;99.90
33067;DHT22;19428;49.024;8.366;2022-11-15T17:14:10;11.70;99.90
33067;DHT22;19428;49.024;8.366;2022-11-15T17:16:37;11.70;99.90
33067;DHT22;19428;49.024;8.366;2022-11-15T17:19:17;11.70;99.90
33067;DHT22;19428;49.024;8.366;2022-11-15T17:21:44;11.80;99.90
33067;DHT22;19428;49.024;8.366;2022-11-15T17:24:10;11.90;99.90
33067;DHT22;19428;49.024;8.366;2022-11-15T17:26:36;12.10;99.90
33067;DHT22;19428;49.024;8.366;2022-11-15T17:29:07;12.00;99.90
33067;DHT22;19428;49.024;8.366;2022-11-15T17:31:36;11.90;99.90
33067;DHT22;19428;49.024;8.366;2022-11-15T17:34:03;11.70;99.90
33067;DHT22;19428;49.024;8.366;2022-11-15T17:36:29;11.80;99.90
33067;DHT22;19428;49.024;8.366;2022-11-15T17:38:55;12.00;99.90
33067;DHT22;19428;49.024;8.366;2022-11-15T17:41:21;12.00;99.90
33067;DHT22;19428;49.024;8.366;2022-11-15T17:43:48;12.10;99.90
33067;DHT22;19428;49.024;8.366;2022-11-15T17:46:19;12.10;99.90
33067;DHT22;19428;49.024;8.366;2022-11-15T17:48:46;12.00;99.90